sensor_id;sensor_type;location;lat;lon;timestamp;P1;durP1;ratioP1;P2;durP2;ratioP2
14205;SDS011;7186;48.800;9.216;2023-03-01T00:02:09;18.07;;;11.13;;
14205;SDS011;7186;48.800;9.216;2023-03-01T00:04:34;22.47;;;11.70;;
14205;SDS011;7186;48.800;9.216;2023-03-01T00:07:00;19.20;;;11.43;;
14205;SDS011;7186;48.800;9.216;2023-03-01T00:09:26;18.03;;;11.60;;
14205;SDS011;7186;48.800;9.216;2023-03-01T00:11:51;19.83;;;12.53;;
14205;SDS011;7186;48.800;9.216;2023-03-01T00:14:16;25.07;;;10.87;;
14205;SDS011;7186;48.800;9.216;2023-03-01T00:16:42;17.40;;;11.13;;
14205;SDS011;7186;48.800;9.216;2023-03-01T00:19:12;17.87;;;11.17;;
14205;SDS011;7186;48.800;9.216;2023-03-01T00:21:37;21.00;;;11.63;;
14205;SDS011;7186;48.800;9.216;2023-03-01T00:24:02;19.03;;;11.40;;
14205;SDS011;7186;48.800;9.216;2023-03-01T00:26:28;19.80;;;12.77;;
14205;SDS011;7186;48.800;9.216;2023-03-01T00:28:53;17.10;;;10.83;;
14205;SDS011;7186;48.800;9.216;2023-03-01T00:31:21;17.50;;;11.50;;
14205;SDS011;7186;48.800;9.216;2023-03-01T00:33:46;17.67;;;10.97;;
14205;SDS011;7186;48.800;9.216;2023-03-01T00:36:12;19.43;;;11.10;;
14205;SDS011;7186;48.800;9.216;2023-03-01T00:38:39;18.80;;;12.23;;
14205;SDS011;7186;48.800;9.216;2023-03-01T00:41:09;17.70;;;11.33;;
14205;SDS011;7186;48.800;9.216;2023-03-01T00:43:34;21.03;;;11.93;;
14205;SDS011;7186;48.800;9.216;2023-03-01T00:46:08;20.90;;;10.73;;
14205;SDS011;7186;48.800;9.216;2023-03-01T00:48:34;16.30;;;10.80;;
14205;SDS011;7186;48.800;9.216;2023-03-01T00:53:31;19.93;;;11.13;;
14205;SDS011;7186;48.800;9.216;2023-03-01T00:55:57;16.93;;;10.73;;
14205;SDS011;7186;48.800;9.216;2023-03-01T00:58:22;19.07;;;11.47;;
14205;SDS011;7186;48.800;9.216;2023-03-01T01:00:48;19.27;;;11.37;;
14205;SDS011;7186;48.800;9.216;2023-03-01T01:03:13;16.93;;;10.33;;
14205;SDS011;7186;48.800;9.216;2023-03-01T01:05:38;17.67;;;11.10;;
14205;SDS011;7186;48.800;9.216;2023-03-01T01:08:03;23.77;;;12.50;;
14205;SDS011;7186;48.800;9.216;2023-03-01T01:10:29;18.33;;;12.00;;
14205;SDS011;7186;48.800;9.216;2023-03-01T01:12:54;19.83;;;11.90;;
14205;SDS011;7186;48.800;9.216;2023-03-01T01:15:19;19.03;;;11.53;;
14205;SDS011;7186;48.800;9.216;2023-03-01T01:17:44;19.67;;;11.07;;
14205;SDS011;7186;48.800;9.216;2023-03-01T01:20:09;23.60;;;10.87;;
14205;SDS011;7186;48.800;9.216;2023-03-01T01:22:35;18.23;;;11.20;;
14205;SDS011;7186;48.800;9.216;2023-03-01T01:25:00;21.53;;;11.53;;
14205;SDS011;7186;48.800;9.216;2023-03-01T01:27:25;18.20;;;11.33;;
14205;SDS011;7186;48.800;9.216;2023-03-01T01:29:52;21.30;;;10.53;;
14205;SDS011;7186;48.800;9.216;2023-03-01T01:32:17;22.80;;;11.43;;
14205;SDS011;7186;48.800;9.216;2023-03-01T01:34:43;17.13;;;10.90;;
14205;SDS011;7186;48.800;9.216;2023-03-01T01:37:08;20.77;;;11.87;;
14205;SDS011;7186;48.800;9.216;2023-03-01T01:39:34;20.10;;;11.57;;
14205;SDS011;7186;48.800;9.216;2023-03-01T01:42:00;18.90;;;11.93;;
14205;SDS011;7186;48.800;9.216;2023-03-01T01:44:26;20.70;;;11.97;;
14205;SDS011;7186;48.800;9.216;2023-03-01T01:51:48;18.40;;;10.97;;
14205;SDS011;7186;48.800;9.216;2023-03-01T01:57:07;20.10;;;11.27;;
14205;SDS011;7186;48.800;9.216;2023-03-01T01:59:34;20.83;;;12.13;;
14205;SDS011;7186;48.800;9.216;2023-03-01T02:02:00;19.83;;;12.17;;
14205;SDS011;7186;48.800;9.216;2023-03-01T02:04:26;18.13;;;11.33;;
14205;SDS011;7186;48.800;9.216;2023-03-01T02:07:01;19.97;;;11.20;;
14205;SDS011;7186;48.800;9.216;2023-03-01T02:09:28;18.97;;;11.43;;
14205;SDS011;7186;48.800;9.216;2023-03-01T02:11:55;20.30;;;11.50;;
14205;SDS011;7186;48.800;9.216;2023-03-01T02:14:20;18.23;;;11.43;;
14205;SDS011;7186;48.800;9.216;2023-03-01T02:16:45;19.23;;;12.20;;
14205;SDS011;7186;48.800;9.216;2023-03-01T02:19:13;18.10;;;11.77;;
14205;SDS011;7186;48.800;9.216;2023-03-01T02:26:50;21.77;;;11.50;;
14205;SDS011;7186;48.800;9.216;2023-03-01T02:29:17;19.40;;;11.40;;
14205;SDS011;7186;48.800;9.216;2023-03-01T02:31:42;20.87;;;12.17;;
14205;SDS011;7186;48.800;9.216;2023-03-01T02:34:15;23.63;;;11.90;;
14205;SDS011;7186;48.800;9.216;2023-03-01T02:36:42;19.33;;;11.70;;
14205;SDS011;7186;48.800;9.216;2023-03-01T02:39:09;17.93;;;12.20;;
14205;SDS011;7186;48.800;9.216;2023-03-01T02:41:39;23.67;;;12.90;;
14205;SDS011;7186;48.800;9.216;2023-03-01T02:44:06;19.47;;;12.07;;
14205;SDS011;7186;48.800;9.216;2023-03-01T02:46:31;20.47;;;12.37;;
14205;SDS011;7186;48.800;9.216;2023-03-01T02:48:57;20.93;;;12.17;;
14205;SDS011;7186;48.800;9.216;2023-03-01T02:51:27;20.23;;;12.50;;
14205;SDS011;7186;48.800;9.216;2023-03-01T02:53:59;17.93;;;11.93;;
14205;SDS011;7186;48.800;9.216;2023-03-01T02:56:29;21.67;;;11.83;;
14205;SDS011;7186;48.800;9.216;2023-03-01T02:58:54;21.47;;;12.63;;
14205;SDS011;7186;48.800;9.216;2023-03-01T03:01:20;23.17;;;12.87;;
14205;SDS011;7186;48.800;9.216;2023-03-01T03:03:45;20.13;;;11.87;;
14205;SDS011;7186;48.800;9.216;2023-03-01T03:06:10;20.80;;;11.27;;
14205;SDS011;7186;48.800;9.216;2023-03-01T03:08:36;21.40;;;12.57;;
14205;SDS011;7186;48.800;9.216;2023-03-01T03:11:01;19.90;;;11.60;;
14205;SDS011;7186;48.800;9.216;2023-03-01T03:13:26;22.77;;;13.00;;
14205;SDS011;7186;48.800;9.216;2023-03-01T03:15:53;22.30;;;12.70;;
14205;SDS011;7186;48.800;9.216;2023-03-01T03:18:18;19.47;;;11.73;;
14205;SDS011;7186;48.800;9.216;2023-03-01T03:20:44;21.33;;;12.63;;
14205;SDS011;7186;48.800;9.216;2023-03-01T03:23:09;20.00;;;12.17;;
14205;SDS011;7186;48.800;9.216;2023-03-01T03:25:35;22.67;;;12.30;;
14205;SDS011;7186;48.800;9.216;2023-03-01T03:28:03;18.63;;;12.10;;
14205;SDS011;7186;48.800;9.216;2023-03-01T03:30:34;24.53;;;13.40;;
14205;SDS011;7186;48.800;9.216;2023-03-01T03:33:00;23.77;;;13.07;;
14205;SDS011;7186;48.800;9.216;2023-03-01T03:35:27;21.17;;;13.27;;
14205;SDS011;7186;48.800;9.216;2023-03-01T03:37:54;22.00;;;12.57;;
14205;SDS011;7186;48.800;9.216;2023-03-01T03:40:32;24.03;;;13.13;;
14205;SDS011;7186;48.800;9.216;2023-03-01T03:42:58;20.07;;;12.87;;
14205;SDS011;7186;48.800;9.216;2023-03-01T03:45:23;24.23;;;13.27;;
14205;SDS011;7186;48.800;9.216;2023-03-01T03:47:48;23.73;;;13.23;;
14205;SDS011;7186;48.800;9.216;2023-03-01T03:50:14;17.60;;;12.00;;
14205;SDS011;7186;48.800;9.216;2023-03-01T03:52:40;20.20;;;11.77;;
14205;SDS011;7186;48.800;9.216;2023-03-01T03:55:06;19.43;;;11.73;;
14205;SDS011;7186;48.800;9.216;2023-03-01T03:57:35;22.83;;;13.07;;
14205;SDS011;7186;48.800;9.216;2023-03-01T04:00:00;22.37;;;12.53;;
14205;SDS011;7186;48.800;9.216;2023-03-01T04:02:26;21.20;;;13.03;;
14205;SDS011;7186;48.800;9.216;2023-03-01T04:04:52;22.27;;;11.97;;
14205;SDS011;7186;48.800;9.216;2023-03-01T04:07:17;22.43;;;12.97;;
14205;SDS011;7186;48.800;9.216;2023-03-01T04:09:43;20.33;;;12.50;;
14205;SDS011;7186;48.800;9.216;2023-03-01T04:12:09;23.87;;;12.93;;
14205;SDS011;7186;48.800;9.216;2023-03-01T04:14:34;22.57;;;13.03;;
14205;SDS011;7186;48.800;9.216;2023-03-01T04:16:59;20.70;;;13.13;;
14205;SDS011;7186;48.800;9.216;2023-03-01T04:19:24;22.67;;;12.43;;
14205;SDS011;7186;48.800;9.216;2023-03-01T04:21:49;19.33;;;12.27;;
14205;SDS011;7186;48.800;9.216;2023-03-01T04:24:15;24.40;;;13.70;;
14205;SDS011;7186;48.800;9.216;2023-03-01T04:26:41;24.57;;;12.73;;
14205;SDS011;7186;48.800;9.216;2023-03-01T04:29:06;21.83;;;13.17;;
14205;SDS011;7186;48.800;9.216;2023-03-01T04:31:31;22.90;;;13.80;;
14205;SDS011;7186;48.800;9.216;2023-03-01T04:33:57;19.60;;;13.07;;
14205;SDS011;7186;48.800;9.216;2023-03-01T04:36:27;22.33;;;13.13;;
14205;SDS011;7186;48.800;9.216;2023-03-01T04:38:52;21.73;;;12.03;;
14205;SDS011;7186;48.800;9.216;2023-03-01T04:41:19;19.57;;;12.70;;
14205;SDS011;7186;48.800;9.216;2023-03-01T04:43:45;24.80;;;13.60;;
14205;SDS011;7186;48.800;9.216;2023-03-01T04:46:14;23.37;;;13.97;;
14205;SDS011;7186;48.800;9.216;2023-03-01T04:48:40;20.93;;;12.90;;
14205;SDS011;7186;48.800;9.216;2023-03-01T04:51:05;25.17;;;13.60;;
14205;SDS011;7186;48.800;9.216;2023-03-01T04:53:31;24.90;;;13.40;;
14205;SDS011;7186;48.800;9.216;2023-03-01T04:55:57;21.13;;;12.90;;
14205;SDS011;7186;48.800;9.216;2023-03-01T04:58:23;23.27;;;12.50;;
14205;SDS011;7186;48.800;9.216;2023-03-01T05:00:49;23.93;;;14.13;;
14205;SDS011;7186;48.800;9.216;2023-03-01T05:03:14;20.77;;;13.10;;
14205;SDS011;7186;48.800;9.216;2023-03-01T05:05:43;20.10;;;12.30;;
14205;SDS011;7186;48.800;9.216;2023-03-01T05:08:09;21.17;;;12.30;;
14205;SDS011;7186;48.800;9.216;2023-03-01T05:10:42;23.00;;;14.70;;
14205;SDS011;7186;48.800;9.216;2023-03-01T05:13:08;23.57;;;13.90;;
14205;SDS011;7186;48.800;9.216;2023-03-01T05:15:33;19.63;;;12.47;;
14205;SDS011;7186;48.800;9.216;2023-03-01T05:17:59;21.53;;;13.73;;
14205;SDS011;7186;48.800;9.216;2023-03-01T05:20:25;21.37;;;12.60;;
14205;SDS011;7186;48.800;9.216;2023-03-01T05:22:51;24.67;;;14.13;;
14205;SDS011;7186;48.800;9.216;2023-03-01T05:25:16;23.50;;;12.70;;
14205;SDS011;7186;48.800;9.216;2023-03-01T05:27:42;21.17;;;12.57;;
14205;SDS011;7186;48.800;9.216;2023-03-01T05:30:07;22.67;;;13.50;;
14205;SDS011;7186;48.800;9.216;2023-03-01T05:32:39;20.33;;;13.43;;
14205;SDS011;7186;48.800;9.216;2023-03-01T05:35:05;22.20;;;13.83;;
14205;SDS011;7186;48.800;9.216;2023-03-01T05:37:30;24.87;;;13.77;;
14205;SDS011;7186;48.800;9.216;2023-03-01T05:39:55;21.63;;;13.73;;
14205;SDS011;7186;48.800;9.216;2023-03-01T05:42:21;20.63;;;12.53;;
14205;SDS011;7186;48.800;9.216;2023-03-01T05:44:46;21.47;;;12.40;;
14205;SDS011;7186;48.800;9.216;2023-03-01T05:47:11;22.30;;;12.90;;
14205;SDS011;7186;48.800;9.216;2023-03-01T05:49:36;23.03;;;13.33;;
14205;SDS011;7186;48.800;9.216;2023-03-01T05:52:01;22.30;;;13.27;;
14205;SDS011;7186;48.800;9.216;2023-03-01T05:54:27;21.40;;;13.00;;
14205;SDS011;7186;48.800;9.216;2023-03-01T05:56:52;24.37;;;13.97;;
14205;SDS011;7186;48.800;9.216;2023-03-01T05:59:17;21.40;;;13.57;;
14205;SDS011;7186;48.800;9.216;2023-03-01T06:01:42;25.47;;;13.67;;
14205;SDS011;7186;48.800;9.216;2023-03-01T06:04:08;25.73;;;14.27;;
14205;SDS011;7186;48.800;9.216;2023-03-01T06:06:34;21.90;;;12.87;;
14205;SDS011;7186;48.800;9.216;2023-03-01T06:09:02;22.27;;;13.60;;
14205;SDS011;7186;48.800;9.216;2023-03-01T06:11:27;22.43;;;14.03;;
14205;SDS011;7186;48.800;9.216;2023-03-01T06:13:52;25.03;;;13.43;;
14205;SDS011;7186;48.800;9.216;2023-03-01T06:16:18;24.40;;;14.07;;
14205;SDS011;7186;48.800;9.216;2023-03-01T06:18:43;26.00;;;14.47;;
14205;SDS011;7186;48.800;9.216;2023-03-01T06:21:08;25.53;;;13.63;;
14205;SDS011;7186;48.800;9.216;2023-03-01T06:23:34;25.97;;;14.37;;
14205;SDS011;7186;48.800;9.216;2023-03-01T06:25:59;26.13;;;13.73;;
14205;SDS011;7186;48.800;9.216;2023-03-01T06:28:25;21.00;;;13.23;;
14205;SDS011;7186;48.800;9.216;2023-03-01T06:30:50;22.73;;;14.03;;
14205;SDS011;7186;48.800;9.216;2023-03-01T06:33:16;22.67;;;13.57;;
14205;SDS011;7186;48.800;9.216;2023-03-01T06:35:43;21.40;;;13.97;;
14205;SDS011;7186;48.800;9.216;2023-03-01T06:38:08;23.90;;;14.03;;
14205;SDS011;7186;48.800;9.216;2023-03-01T06:40:34;23.07;;;13.47;;
14205;SDS011;7186;48.800;9.216;2023-03-01T06:43:00;21.77;;;13.00;;
14205;SDS011;7186;48.800;9.216;2023-03-01T06:45:25;21.40;;;13.77;;
14205;SDS011;7186;48.800;9.216;2023-03-01T06:47:51;24.53;;;13.63;;
14205;SDS011;7186;48.800;9.216;2023-03-01T06:50:16;24.03;;;14.63;;
14205;SDS011;7186;48.800;9.216;2023-03-01T06:52:42;24.90;;;14.23;;
14205;SDS011;7186;48.800;9.216;2023-03-01T06:55:09;26.50;;;14.60;;
14205;SDS011;7186;48.800;9.216;2023-03-01T06:57:35;20.83;;;13.53;;
14205;SDS011;7186;48.800;9.216;2023-03-01T07:00:00;25.43;;;14.33;;
14205;SDS011;7186;48.800;9.216;2023-03-01T07:02:25;23.43;;;13.63;;
14205;SDS011;7186;48.800;9.216;2023-03-01T07:04:51;27.03;;;14.80;;
14205;SDS011;7186;48.800;9.216;2023-03-01T07:07:16;24.30;;;14.50;;
14205;SDS011;7186;48.800;9.216;2023-03-01T07:09:43;23.97;;;14.00;;
14205;SDS011;7186;48.800;9.216;2023-03-01T07:12:08;24.50;;;13.43;;
14205;SDS011;7186;48.800;9.216;2023-03-01T07:14:33;22.37;;;14.43;;
14205;SDS011;7186;48.800;9.216;2023-03-01T07:16:58;24.97;;;14.57;;
14205;SDS011;7186;48.800;9.216;2023-03-01T07:19:24;22.33;;;13.57;;
14205;SDS011;7186;48.800;9.216;2023-03-01T07:21:49;24.27;;;14.67;;
14205;SDS011;7186;48.800;9.216;2023-03-01T07:24:14;24.23;;;14.33;;
14205;SDS011;7186;48.800;9.216;2023-03-01T07:26:39;23.20;;;13.40;;
14205;SDS011;7186;48.800;9.216;2023-03-01T07:29:05;22.87;;;13.73;;
14205;SDS011;7186;48.800;9.216;2023-03-01T07:31:31;23.10;;;14.33;;
14205;SDS011;7186;48.800;9.216;2023-03-01T07:33:56;23.73;;;14.57;;
14205;SDS011;7186;48.800;9.216;2023-03-01T07:36:22;25.00;;;13.17;;
14205;SDS011;7186;48.800;9.216;2023-03-01T07:38:47;24.57;;;14.53;;
14205;SDS011;7186;48.800;9.216;2023-03-01T07:41:12;22.93;;;14.87;;
14205;SDS011;7186;48.800;9.216;2023-03-01T07:43:38;26.53;;;14.60;;
14205;SDS011;7186;48.800;9.216;2023-03-01T07:46:03;24.13;;;14.23;;
14205;SDS011;7186;48.800;9.216;2023-03-01T07:48:29;25.63;;;14.57;;
14205;SDS011;7186;48.800;9.216;2023-03-01T07:50:57;28.07;;;14.97;;
14205;SDS011;7186;48.800;9.216;2023-03-01T07:53:22;27.83;;;14.77;;
14205;SDS011;7186;48.800;9.216;2023-03-01T07:55:47;23.27;;;14.27;;
14205;SDS011;7186;48.800;9.216;2023-03-01T07:58:13;24.23;;;14.77;;
14205;SDS011;7186;48.800;9.216;2023-03-01T08:00:38;24.73;;;14.57;;
14205;SDS011;7186;48.800;9.216;2023-03-01T08:03:03;23.67;;;14.50;;
14205;SDS011;7186;48.800;9.216;2023-03-01T08:05:28;23.90;;;14.70;;
14205;SDS011;7186;48.800;9.216;2023-03-01T08:07:54;26.13;;;14.90;;
14205;SDS011;7186;48.800;9.216;2023-03-01T08:10:19;24.20;;;13.60;;
14205;SDS011;7186;48.800;9.216;2023-03-01T08:12:44;23.67;;;14.37;;
14205;SDS011;7186;48.800;9.216;2023-03-01T08:15:10;25.70;;;15.37;;
14205;SDS011;7186;48.800;9.216;2023-03-01T08:17:35;24.60;;;14.20;;
14205;SDS011;7186;48.800;9.216;2023-03-01T08:20:01;25.13;;;13.93;;
14205;SDS011;7186;48.800;9.216;2023-03-01T08:22:27;37.07;;;15.53;;
14205;SDS011;7186;48.800;9.216;2023-03-01T08:24:52;26.97;;;14.60;;
14205;SDS011;7186;48.800;9.216;2023-03-01T08:27:19;23.67;;;13.93;;
14205;SDS011;7186;48.800;9.216;2023-03-01T08:29:44;23.47;;;14.57;;
14205;SDS011;7186;48.800;9.216;2023-03-01T08:32:10;33.33;;;15.33;;
14205;SDS011;7186;48.800;9.216;2023-03-01T08:34:35;37.17;;;16.10;;
14205;SDS011;7186;48.800;9.216;2023-03-01T08:37:00;28.83;;;15.47;;
14205;SDS011;7186;48.800;9.216;2023-03-01T08:39:26;24.13;;;14.77;;
14205;SDS011;7186;48.800;9.216;2023-03-01T08:41:51;24.10;;;14.40;;
14205;SDS011;7186;48.800;9.216;2023-03-01T08:44:16;24.50;;;14.13;;
14205;SDS011;7186;48.800;9.216;2023-03-01T08:46:41;22.67;;;13.17;;
14205;SDS011;7186;48.800;9.216;2023-03-01T08:49:08;24.27;;;14.90;;
14205;SDS011;7186;48.800;9.216;2023-03-01T08:51:33;24.27;;;14.77;;
14205;SDS011;7186;48.800;9.216;2023-03-01T08:54:02;35.13;;;15.30;;
14205;SDS011;7186;48.800;9.216;2023-03-01T08:56:27;33.27;;;15.93;;
14205;SDS011;7186;48.800;9.216;2023-03-01T08:58:53;26.40;;;15.40;;
14205;SDS011;7186;48.800;9.216;2023-03-01T09:01:18;25.73;;;14.60;;
14205;SDS011;7186;48.800;9.216;2023-03-01T09:03:44;25.07;;;15.30;;
14205;SDS011;7186;48.800;9.216;2023-03-01T09:06:09;26.23;;;14.77;;
14205;SDS011;7186;48.800;9.216;2023-03-01T09:08:38;34.10;;;15.73;;
14205;SDS011;7186;48.800;9.216;2023-03-01T09:11:04;26.17;;;15.37;;
14205;SDS011;7186;48.800;9.216;2023-03-01T09:13:30;24.37;;;15.17;;
14205;SDS011;7186;48.800;9.216;2023-03-01T09:15:59;24.77;;;15.33;;
14205;SDS011;7186;48.800;9.216;2023-03-01T09:18:25;26.70;;;15.00;;
14205;SDS011;7186;48.800;9.216;2023-03-01T09:20:50;32.20;;;15.23;;
14205;SDS011;7186;48.800;9.216;2023-03-01T09:23:15;25.77;;;15.43;;
14205;SDS011;7186;48.800;9.216;2023-03-01T09:25:40;30.30;;;15.17;;
14205;SDS011;7186;48.800;9.216;2023-03-01T09:28:06;25.23;;;16.07;;
14205;SDS011;7186;48.800;9.216;2023-03-01T09:30:31;23.23;;;14.63;;
14205;SDS011;7186;48.800;9.216;2023-03-01T09:32:56;25.53;;;15.10;;
14205;SDS011;7186;48.800;9.216;2023-03-01T09:35:22;23.47;;;14.70;;
14205;SDS011;7186;48.800;9.216;2023-03-01T09:37:48;21.80;;;14.57;;
14205;SDS011;7186;48.800;9.216;2023-03-01T09:40:16;27.43;;;15.40;;
14205;SDS011;7186;48.800;9.216;2023-03-01T09:42:47;24.97;;;14.87;;
14205;SDS011;7186;48.800;9.216;2023-03-01T09:45:32;25.50;;;15.43;;
14205;SDS011;7186;48.800;9.216;2023-03-01T09:47:58;24.20;;;15.13;;
14205;SDS011;7186;48.800;9.216;2023-03-01T09:50:23;33.90;;;16.07;;
14205;SDS011;7186;48.800;9.216;2023-03-01T09:52:59;25.40;;;14.57;;
14205;SDS011;7186;48.800;9.216;2023-03-01T09:55:37;21.97;;;13.77;;
14205;SDS011;7186;48.800;9.216;2023-03-01T10:00:48;25.07;;;14.13;;
14205;SDS011;7186;48.800;9.216;2023-03-01T10:06:23;23.40;;;14.43;;
14205;SDS011;7186;48.800;9.216;2023-03-01T10:10:56;21.87;;;14.37;;
14205;SDS011;7186;48.800;9.216;2023-03-01T10:13:33;23.77;;;14.17;;
14205;SDS011;7186;48.800;9.216;2023-03-01T10:16:19;22.10;;;14.53;;
14205;SDS011;7186;48.800;9.216;2023-03-01T10:18:46;21.87;;;14.03;;
14205;SDS011;7186;48.800;9.216;2023-03-01T10:21:15;23.33;;;14.53;;
14205;SDS011;7186;48.800;9.216;2023-03-01T10:23:42;21.40;;;13.37;;
14205;SDS011;7186;48.800;9.216;2023-03-01T10:28:47;23.07;;;15.00;;
14205;SDS011;7186;48.800;9.216;2023-03-01T10:31:16;23.20;;;14.37;;
14205;SDS011;7186;48.800;9.216;2023-03-01T10:33:43;21.60;;;13.43;;
14205;SDS011;7186;48.800;9.216;2023-03-01T10:36:08;22.53;;;13.83;;
14205;SDS011;7186;48.800;9.216;2023-03-01T10:38:47;23.33;;;14.20;;
14205;SDS011;7186;48.800;9.216;2023-03-01T10:41:12;20.90;;;13.30;;
14205;SDS011;7186;48.800;9.216;2023-03-01T10:46:21;21.60;;;14.60;;
14205;SDS011;7186;48.800;9.216;2023-03-01T10:48:51;24.97;;;14.70;;
14205;SDS011;7186;48.800;9.216;2023-03-01T10:51:30;23.27;;;15.40;;
14205;SDS011;7186;48.800;9.216;2023-03-01T10:53:55;20.40;;;14.00;;
14205;SDS011;7186;48.800;9.216;2023-03-01T10:56:21;22.00;;;14.27;;
14205;SDS011;7186;48.800;9.216;2023-03-01T10:58:59;20.60;;;13.93;;
14205;SDS011;7186;48.800;9.216;2023-03-01T11:06:30;21.53;;;14.43;;
14205;SDS011;7186;48.800;9.216;2023-03-01T11:08:55;20.77;;;14.53;;
14205;SDS011;7186;48.800;9.216;2023-03-01T11:13:54;20.23;;;14.73;;
14205;SDS011;7186;48.800;9.216;2023-03-01T11:16:26;25.73;;;15.07;;
14205;SDS011;7186;48.800;9.216;2023-03-01T11:18:59;21.90;;;14.67;;
14205;SDS011;7186;48.800;9.216;2023-03-01T11:21:25;19.20;;;14.10;;
14205;SDS011;7186;48.800;9.216;2023-03-01T11:23:51;20.50;;;14.70;;
14205;SDS011;7186;48.800;9.216;2023-03-01T11:26:17;20.17;;;14.70;;
14205;SDS011;7186;48.800;9.216;2023-03-01T11:28:43;22.17;;;15.00;;
14205;SDS011;7186;48.800;9.216;2023-03-01T11:31:11;22.50;;;14.73;;
14205;SDS011;7186;48.800;9.216;2023-03-01T11:36:06;19.30;;;14.60;;
14205;SDS011;7186;48.800;9.216;2023-03-01T11:38:34;19.67;;;15.20;;
14205;SDS011;7186;48.800;9.216;2023-03-01T11:41:03;18.97;;;14.60;;
14205;SDS011;7186;48.800;9.216;2023-03-01T11:48:51;20.07;;;15.10;;
14205;SDS011;7186;48.800;9.216;2023-03-01T11:51:25;19.47;;;14.67;;
14205;SDS011;7186;48.800;9.216;2023-03-01T11:56:43;18.57;;;14.63;;
14205;SDS011;7186;48.800;9.216;2023-03-01T12:01:58;19.90;;;14.80;;
14205;SDS011;7186;48.800;9.216;2023-03-01T12:07:11;19.63;;;15.10;;
14205;SDS011;7186;48.800;9.216;2023-03-01T12:17:27;16.37;;;13.90;;
14205;SDS011;7186;48.800;9.216;2023-03-01T12:25:26;17.77;;;13.53;;
14205;SDS011;7186;48.800;9.216;2023-03-01T12:35:48;17.90;;;13.53;;
14205;SDS011;7186;48.800;9.216;2023-03-01T12:38:31;18.20;;;13.60;;
14205;SDS011;7186;48.800;9.216;2023-03-01T12:44:01;20.20;;;14.27;;
14205;SDS011;7186;48.800;9.216;2023-03-01T12:51:42;16.77;;;13.00;;
14205;SDS011;7186;48.800;9.216;2023-03-01T12:54:14;15.73;;;12.33;;
14205;SDS011;7186;48.800;9.216;2023-03-01T12:56:40;16.60;;;11.77;;
14205;SDS011;7186;48.800;9.216;2023-03-01T12:59:21;17.00;;;12.90;;
14205;SDS011;7186;48.800;9.216;2023-03-01T13:01:51;16.67;;;12.77;;
14205;SDS011;7186;48.800;9.216;2023-03-01T13:06:47;16.43;;;12.47;;
14205;SDS011;7186;48.800;9.216;2023-03-01T13:11:43;20.00;;;13.73;;
14205;SDS011;7186;48.800;9.216;2023-03-01T13:16:46;17.90;;;11.93;;
14205;SDS011;7186;48.800;9.216;2023-03-01T13:19:17;15.80;;;12.07;;
14205;SDS011;7186;48.800;9.216;2023-03-01T13:21:44;19.60;;;13.20;;
14205;SDS011;7186;48.800;9.216;2023-03-01T13:29:43;18.97;;;13.70;;
14205;SDS011;7186;48.800;9.216;2023-03-01T13:32:18;20.53;;;15.17;;
14205;SDS011;7186;48.800;9.216;2023-03-01T13:34:45;20.90;;;13.70;;
14205;SDS011;7186;48.800;9.216;2023-03-01T13:37:18;19.53;;;14.00;;
14205;SDS011;7186;48.800;9.216;2023-03-01T13:39:43;19.83;;;13.63;;
14205;SDS011;7186;48.800;9.216;2023-03-01T13:44:53;21.43;;;14.67;;
14205;SDS011;7186;48.800;9.216;2023-03-01T13:47:18;21.13;;;13.73;;
14205;SDS011;7186;48.800;9.216;2023-03-01T13:54:52;19.80;;;13.87;;
14205;SDS011;7186;48.800;9.216;2023-03-01T13:57:20;20.53;;;14.93;;
14205;SDS011;7186;48.800;9.216;2023-03-01T13:59:47;22.00;;;14.70;;
14205;SDS011;7186;48.800;9.216;2023-03-01T14:02:12;21.37;;;14.77;;
14205;SDS011;7186;48.800;9.216;2023-03-01T14:04:38;22.70;;;14.40;;
14205;SDS011;7186;48.800;9.216;2023-03-01T14:07:12;21.43;;;15.13;;
14205;SDS011;7186;48.800;9.216;2023-03-01T14:09:42;23.00;;;15.20;;
14205;SDS011;7186;48.800;9.216;2023-03-01T14:12:20;21.80;;;15.43;;
14205;SDS011;7186;48.800;9.216;2023-03-01T14:19:59;19.60;;;13.80;;
14205;SDS011;7186;48.800;9.216;2023-03-01T14:22:29;24.03;;;15.43;;
14205;SDS011;7186;48.800;9.216;2023-03-01T14:24:58;21.60;;;15.30;;
14205;SDS011;7186;48.800;9.216;2023-03-01T14:27:25;20.80;;;15.40;;
14205;SDS011;7186;48.800;9.216;2023-03-01T14:30:01;23.33;;;14.87;;
14205;SDS011;7186;48.800;9.216;2023-03-01T14:32:28;24.73;;;14.90;;
14205;SDS011;7186;48.800;9.216;2023-03-01T14:34:53;20.90;;;14.53;;
14205;SDS011;7186;48.800;9.216;2023-03-01T14:39:44;24.80;;;15.13;;
14205;SDS011;7186;48.800;9.216;2023-03-01T14:42:09;24.07;;;15.20;;
14205;SDS011;7186;48.800;9.216;2023-03-01T14:44:34;23.43;;;14.50;;
14205;SDS011;7186;48.800;9.216;2023-03-01T14:47:02;24.30;;;15.30;;
14205;SDS011;7186;48.800;9.216;2023-03-01T14:49:29;22.13;;;14.73;;
14205;SDS011;7186;48.800;9.216;2023-03-01T14:52:02;21.17;;;14.60;;
14205;SDS011;7186;48.800;9.216;2023-03-01T14:54:32;21.03;;;14.53;;
14205;SDS011;7186;48.800;9.216;2023-03-01T14:57:01;22.90;;;14.57;;
14205;SDS011;7186;48.800;9.216;2023-03-01T14:59:26;21.20;;;14.27;;
14205;SDS011;7186;48.800;9.216;2023-03-01T15:01:53;22.90;;;15.40;;
14205;SDS011;7186;48.800;9.216;2023-03-01T15:04:19;20.33;;;13.57;;
14205;SDS011;7186;48.800;9.216;2023-03-01T15:06:46;24.27;;;14.67;;
14205;SDS011;7186;48.800;9.216;2023-03-01T15:09:14;21.00;;;14.60;;
14205;SDS011;7186;48.800;9.216;2023-03-01T15:11:41;22.00;;;14.83;;
14205;SDS011;7186;48.800;9.216;2023-03-01T15:16:52;25.83;;;16.10;;
14205;SDS011;7186;48.800;9.216;2023-03-01T15:19:18;22.87;;;14.63;;
14205;SDS011;7186;48.800;9.216;2023-03-01T15:21:44;24.10;;;15.00;;
14205;SDS011;7186;48.800;9.216;2023-03-01T15:26:44;27.27;;;15.13;;
14205;SDS011;7186;48.800;9.216;2023-03-01T15:29:15;20.00;;;13.70;;
14205;SDS011;7186;48.800;9.216;2023-03-01T15:31:41;21.67;;;14.80;;
14205;SDS011;7186;48.800;9.216;2023-03-01T15:34:08;23.23;;;15.30;;
14205;SDS011;7186;48.800;9.216;2023-03-01T15:36:43;22.90;;;14.20;;
14205;SDS011;7186;48.800;9.216;2023-03-01T15:41:53;21.47;;;14.60;;
14205;SDS011;7186;48.800;9.216;2023-03-01T15:44:28;21.47;;;14.30;;
14205;SDS011;7186;48.800;9.216;2023-03-01T15:47:00;23.40;;;14.13;;
14205;SDS011;7186;48.800;9.216;2023-03-01T15:51:52;21.00;;;14.67;;
14205;SDS011;7186;48.800;9.216;2023-03-01T15:54:22;24.90;;;14.70;;
14205;SDS011;7186;48.800;9.216;2023-03-01T15:56:48;21.83;;;13.67;;
14205;SDS011;7186;48.800;9.216;2023-03-01T15:59:14;22.00;;;13.63;;
14205;SDS011;7186;48.800;9.216;2023-03-01T16:01:42;23.07;;;14.23;;
14205;SDS011;7186;48.800;9.216;2023-03-01T16:04:11;22.00;;;14.60;;
14205;SDS011;7186;48.800;9.216;2023-03-01T16:06:45;23.73;;;14.03;;
14205;SDS011;7186;48.800;9.216;2023-03-01T16:09:12;21.23;;;12.83;;
14205;SDS011;7186;48.800;9.216;2023-03-01T16:11:37;26.87;;;14.30;;
14205;SDS011;7186;48.800;9.216;2023-03-01T16:14:04;23.73;;;13.87;;
14205;SDS011;7186;48.800;9.216;2023-03-01T16:16:30;23.43;;;13.03;;
14205;SDS011;7186;48.800;9.216;2023-03-01T16:18:55;21.40;;;13.77;;
14205;SDS011;7186;48.800;9.216;2023-03-01T16:21:22;23.67;;;13.90;;
14205;SDS011;7186;48.800;9.216;2023-03-01T16:23:47;22.33;;;13.17;;
14205;SDS011;7186;48.800;9.216;2023-03-01T16:26:13;23.37;;;14.10;;
14205;SDS011;7186;48.800;9.216;2023-03-01T16:28:41;19.97;;;12.97;;
14205;SDS011;7186;48.800;9.216;2023-03-01T16:31:07;21.63;;;14.03;;
14205;SDS011;7186;48.800;9.216;2023-03-01T16:33:33;24.17;;;13.63;;